sensor_id;sensor_type;location;lat;lon;timestamp;temperature;humidity
71096;DHT22;58753;49.440;11.126;2023-03-03T00:00:37;0.32;80.69
71096;DHT22;58753;49.440;11.126;2023-03-03T00:03:05;0.32;80.76
71096;DHT22;58753;49.440;11.126;2023-03-03T00:05:32;0.26;80.78
71096;DHT22;58753;49.440;11.126;2023-03-03T00:07:59;0.26;80.93
71096;DHT22;58753;49.440;11.126;2023-03-03T00:10:24;0.21;80.99
71096;DHT22;58753;49.440;11.126;2023-03-03T00:12:50;0.17;81.08
71096;DHT22;58753;49.440;11.126;2023-03-03T00:15:20;0.11;81.32
71096;DHT22;58753;49.440;11.126;2023-03-03T00:17:46;0.10;81.34
71096;DHT22;58753;49.440;11.126;2023-03-03T00:20:35;0.05;81.32
71096;DHT22;58753;49.440;11.126;2023-03-03T00:26:02;-0.03;81.59
71096;DHT22;58753;49.440;11.126;2023-03-03T00:28:51;-0.03;81.88
71096;DHT22;58753;49.440;11.126;2023-03-03T00:31:22;-0.06;81.88
71096;DHT22;58753;49.440;11.126;2023-03-03T00:33:52;-0.09;81.94
71096;DHT22;58753;49.440;11.126;2023-03-03T00:36:37;-0.16;81.88
71096;DHT22;58753;49.440;11.126;2023-03-03T00:39:35;-0.21;82.02
71096;DHT22;58753;49.440;11.126;2023-03-03T00:42:04;-0.23;82.24
71096;DHT22;58753;49.440;11.126;2023-03-03T00:44:43;-0.23;82.36
71096;DHT22;58753;49.440;11.126;2023-03-03T00:47:22;-0.23;82.38
71096;DHT22;58753;49.440;11.126;2023-03-03T00:49:50;-0.24;82.43
71096;DHT22;58753;49.440;11.126;2023-03-03T00:52:17;-0.21;82.62
71096;DHT22;58753;49.440;11.126;2023-03-03T00:54:45;-0.19;82.71
71096;DHT22;58753;49.440;11.126;2023-03-03T00:57:10;-0.14;82.70
71096;DHT22;58753;49.440;11.126;2023-03-03T00:59:39;-0.17;82.57
71096;DHT22;58753;49.440;11.126;2023-03-03T01:02:04;-0.16;82.67
71096;DHT22;58753;49.440;11.126;2023-03-03T01:04:30;-0.16;82.64
71096;DHT22;58753;49.440;11.126;2023-03-03T01:06:55;-0.19;82.63
71096;DHT22;58753;49.440;11.126;2023-03-03T01:09:21;-0.21;82.77
71096;DHT22;58753;49.440;11.126;2023-03-03T01:11:47;-0.19;82.95
71096;DHT22;58753;49.440;11.126;2023-03-03T01:14:13;-0.20;82.87
71096;DHT22;58753;49.440;11.126;2023-03-03T01:16:38;-0.24;82.79
71096;DHT22;58753;49.440;11.126;2023-03-03T01:19:06;-0.26;82.85
71096;DHT22;58753;49.440;11.126;2023-03-03T01:21:31;-0.31;82.91
71096;DHT22;58753;49.440;11.126;2023-03-03T01:23:56;-0.31;82.89
71096;DHT22;58753;49.440;11.126;2023-03-03T01:26:22;-0.31;83.15
71096;DHT22;58753;49.440;11.126;2023-03-03T01:28:47;-0.26;83.36
71096;DHT22;58753;49.440;11.126;2023-03-03T01:31:12;-0.23;83.31
71096;DHT22;58753;49.440;11.126;2023-03-03T01:33:38;-0.16;83.57
71096;DHT22;58753;49.440;11.126;2023-03-03T01:36:03;-0.10;83.34
71096;DHT22;58753;49.440;11.126;2023-03-03T01:38:29;-0.02;83.38
71096;DHT22;58753;49.440;11.126;2023-03-03T01:40:56;0.00;83.25
71096;DHT22;58753;49.440;11.126;2023-03-03T01:43:22;-0.03;83.19
71096;DHT22;58753;49.440;11.126;2023-03-03T01:48:18;-0.07;82.93
71096;DHT22;58753;49.440;11.126;2023-03-03T01:50:56;-0.14;83.04
71096;DHT22;58753;49.440;11.126;2023-03-03T01:53:29;-0.17;83.19
71096;DHT22;58753;49.440;11.126;2023-03-03T01:55:57;-0.20;83.14
71096;DHT22;58753;49.440;11.126;2023-03-03T01:58:35;-0.24;83.24
71096;DHT22;58753;49.440;11.126;2023-03-03T02:01:08;-0.30;83.23
71096;DHT22;58753;49.440;11.126;2023-03-03T02:03:36;-0.31;83.43
71096;DHT22;58753;49.440;11.126;2023-03-03T02:06:06;-0.34;83.56
71096;DHT22;58753;49.440;11.126;2023-03-03T02:08:38;-0.38;83.45
71096;DHT22;58753;49.440;11.126;2023-03-03T02:11:05;-0.40;83.45
71096;DHT22;58753;49.440;11.126;2023-03-03T02:13:31;-0.45;83.58
71096;DHT22;58753;49.440;11.126;2023-03-03T02:15:56;-0.47;83.76
71096;DHT22;58753;49.440;11.126;2023-03-03T02:18:23;-0.49;83.68
71096;DHT22;58753;49.440;11.126;2023-03-03T02:20:57;-0.56;83.56
71096;DHT22;58753;49.440;11.126;2023-03-03T02:23:34;-0.60;83.62
71096;DHT22;58753;49.440;11.126;2023-03-03T02:26:06;-0.68;83.68
71096;DHT22;58753;49.440;11.126;2023-03-03T02:28:34;-0.71;83.73
71096;DHT22;58753;49.440;11.126;2023-03-03T02:31:00;-0.75;83.89
71096;DHT22;58753;49.440;11.126;2023-03-03T02:33:27;-0.78;84.12
71096;DHT22;58753;49.440;11.126;2023-03-03T02:35:53;-0.75;84.19
71096;DHT22;58753;49.440;11.126;2023-03-03T02:38:29;-0.73;84.24
71096;DHT22;58753;49.440;11.126;2023-03-03T02:41:33;-0.74;84.19
71096;DHT22;58753;49.440;11.126;2023-03-03T02:44:04;-0.80;84.10
71096;DHT22;58753;49.440;11.126;2023-03-03T02:46:33;-0.81;84.21
71096;DHT22;58753;49.440;11.126;2023-03-03T02:48:59;-0.84;84.28
71096;DHT22;58753;49.440;11.126;2023-03-03T02:51:25;-0.88;84.30
71096;DHT22;58753;49.440;11.126;2023-03-03T02:53:50;-0.87;84.55
71096;DHT22;58753;49.440;11.126;2023-03-03T02:56:15;-0.87;84.54
71096;DHT22;58753;49.440;11.126;2023-03-03T02:58:41;-0.87;84.45
71096;DHT22;58753;49.440;11.126;2023-03-03T03:01:07;-0.92;84.53
71096;DHT22;58753;49.440;11.126;2023-03-03T03:03:32;-0.94;84.62
71096;DHT22;58753;49.440;11.126;2023-03-03T03:05:58;-0.96;84.46
71096;DHT22;58753;49.440;11.126;2023-03-03T03:08:23;-0.99;84.74
71096;DHT22;58753;49.440;11.126;2023-03-03T03:10:48;-1.01;84.87
71096;DHT22;58753;49.440;11.126;2023-03-03T03:13:14;-1.04;84.62
71096;DHT22;58753;49.440;11.126;2023-03-03T03:15:39;-1.06;84.75
71096;DHT22;58753;49.440;11.126;2023-03-03T03:18:05;-1.08;84.99
71096;DHT22;58753;49.440;11.126;2023-03-03T03:20:35;-1.12;85.07
71096;DHT22;58753;49.440;11.126;2023-03-03T03:23:00;-1.12;84.88
71096;DHT22;58753;49.440;11.126;2023-03-03T03:25:26;-1.12;84.99
71096;DHT22;58753;49.440;11.126;2023-03-03T03:27:51;-1.16;85.09
71096;DHT22;58753;49.440;11.126;2023-03-03T03:30:16;-1.19;85.06
71096;DHT22;58753;49.440;11.126;2023-03-03T03:32:45;-1.16;85.16
71096;DHT22;58753;49.440;11.126;2023-03-03T03:35:10;-1.19;85.13
71096;DHT22;58753;49.440;11.126;2023-03-03T03:37:36;-1.22;85.23
71096;DHT22;58753;49.440;11.126;2023-03-03T03:40:01;-1.24;85.31
71096;DHT22;58753;49.440;11.126;2023-03-03T03:42:26;-1.22;85.22
71096;DHT22;58753;49.440;11.126;2023-03-03T03:44:52;-1.26;85.20
71096;DHT22;58753;49.440;11.126;2023-03-03T03:47:17;-1.29;85.34
71096;DHT22;58753;49.440;11.126;2023-03-03T03:49:42;-1.31;85.47
71096;DHT22;58753;49.440;11.126;2023-03-03T03:52:08;-1.29;85.39
71096;DHT22;58753;49.440;11.126;2023-03-03T03:54:33;-1.32;85.40
71096;DHT22;58753;49.440;11.126;2023-03-03T03:56:59;-1.35;85.38
71096;DHT22;58753;49.440;11.126;2023-03-03T03:59:24;-1.38;85.56
71096;DHT22;58753;49.440;11.126;2023-03-03T04:01:49;-1.39;85.50
71096;DHT22;58753;49.440;11.126;2023-03-03T04:04:15;-1.38;85.72
71096;DHT22;58753;49.440;11.126;2023-03-03T04:06:41;-1.35;85.72
71096;DHT22;58753;49.440;11.126;2023-03-03T04:09:06;-1.39;85.75
71096;DHT22;58753;49.440;11.126;2023-03-03T04:11:32;-1.40;85.67
71096;DHT22;58753;49.440;11.126;2023-03-03T04:13:57;-1.42;85.73
71096;DHT22;58753;49.440;11.126;2023-03-03T04:16:23;-1.45;85.81
71096;DHT22;58753;49.440;11.126;2023-03-03T04:18:49;-1.47;85.61
71096;DHT22;58753;49.440;11.126;2023-03-03T04:21:15;-1.50;85.70
71096;DHT22;58753;49.440;11.126;2023-03-03T04:23:40;-1.52;85.76
71096;DHT22;58753;49.440;11.126;2023-03-03T04:26:06;-1.53;85.94
71096;DHT22;58753;49.440;11.126;2023-03-03T04:28:32;-1.50;85.98
71096;DHT22;58753;49.440;11.126;2023-03-03T04:30:57;-1.47;86.16
71096;DHT22;58753;49.440;11.126;2023-03-03T04:33:23;-1.46;86.11
71096;DHT22;58753;49.440;11.126;2023-03-03T04:35:48;-1.46;86.04
71096;DHT22;58753;49.440;11.126;2023-03-03T04:38:14;-1.45;86.03
71096;DHT22;58753;49.440;11.126;2023-03-03T04:40:40;-1.47;85.91
71096;DHT22;58753;49.440;11.126;2023-03-03T04:43:06;-1.52;85.86
71096;DHT22;58753;49.440;11.126;2023-03-03T04:45:32;-1.53;85.98
71096;DHT22;58753;49.440;11.126;2023-03-03T04:47:57;-1.53;86.03
71096;DHT22;58753;49.440;11.126;2023-03-03T04:50:23;-1.57;85.89
71096;DHT22;58753;49.440;11.126;2023-03-03T04:52:48;-1.59;85.95
71096;DHT22;58753;49.440;11.126;2023-03-03T04:55:13;-1.64;85.92
71096;DHT22;58753;49.440;11.126;2023-03-03T04:57:41;-1.67;85.89
71096;DHT22;58753;49.440;11.126;2023-03-03T05:00:07;-1.69;85.92
71096;DHT22;58753;49.440;11.126;2023-03-03T05:02:32;-1.70;86.16
71096;DHT22;58753;49.440;11.126;2023-03-03T05:04:58;-1.70;86.13
71096;DHT22;58753;49.440;11.126;2023-03-03T05:07:23;-1.69;86.23
71096;DHT22;58753;49.440;11.126;2023-03-03T05:09:49;-1.69;86.32
71096;DHT22;58753;49.440;11.126;2023-03-03T05:12:14;-1.67;86.20
71096;DHT22;58753;49.440;11.126;2023-03-03T05:14:40;-1.70;86.25
71096;DHT22;58753;49.440;11.126;2023-03-03T05:17:05;-1.73;86.20
71096;DHT22;58753;49.440;11.126;2023-03-03T05:19:31;-1.71;86.34
71096;DHT22;58753;49.440;11.126;2023-03-03T05:21:56;-1.71;86.34
71096;DHT22;58753;49.440;11.126;2023-03-03T05:24:23;-1.71;86.34
71096;DHT22;58753;49.440;11.126;2023-03-03T05:26:48;-1.77;86.27
71096;DHT22;58753;49.440;11.126;2023-03-03T05:29:13;-1.81;86.26
71096;DHT22;58753;49.440;11.126;2023-03-03T05:31:39;-1.83;86.28
71096;DHT22;58753;49.440;11.126;2023-03-03T05:34:04;-1.83;86.37
71096;DHT22;58753;49.440;11.126;2023-03-03T05:36:30;-1.81;86.51
71096;DHT22;58753;49.440;11.126;2023-03-03T05:38:55;-1.81;86.48
71096;DHT22;58753;49.440;11.126;2023-03-03T05:41:20;-1.81;86.31
71096;DHT22;58753;49.440;11.126;2023-03-03T05:43:46;-1.83;86.41
71096;DHT22;58753;49.440;11.126;2023-03-03T05:46:12;-1.80;86.43
71096;DHT22;58753;49.440;11.126;2023-03-03T05:48:38;-1.83;86.45
71096;DHT22;58753;49.440;11.126;2023-03-03T05:51:03;-1.80;86.41
71096;DHT22;58753;49.440;11.126;2023-03-03T05:53:29;-1.80;86.51
71096;DHT22;58753;49.440;11.126;2023-03-03T05:55:54;-1.79;86.53
71096;DHT22;58753;49.440;11.126;2023-03-03T05:58:20;-1.77;86.53
71096;DHT22;58753;49.440;11.126;2023-03-03T06:00:45;-1.77;86.37
71096;DHT22;58753;49.440;11.126;2023-03-03T06:03:11;-1.80;86.41
71096;DHT22;58753;49.440;11.126;2023-03-03T06:05:36;-1.80;86.54
71096;DHT22;58753;49.440;11.126;2023-03-03T06:08:02;-1.79;86.63
71096;DHT22;58753;49.440;11.126;2023-03-03T06:10:27;-1.74;86.66
71096;DHT22;58753;49.440;11.126;2023-03-03T06:12:53;-1.71;86.62
71096;DHT22;58753;49.440;11.126;2023-03-03T06:15:20;-1.71;86.40
71096;DHT22;58753;49.440;11.126;2023-03-03T06:17:45;-1.71;86.60
71096;DHT22;58753;49.440;11.126;2023-03-03T06:20:11;-1.66;86.62
71096;DHT22;58753;49.440;11.126;2023-03-03T06:22:36;-1.59;86.77
71096;DHT22;58753;49.440;11.126;2023-03-03T06:25:02;-1.52;86.62
71096;DHT22;58753;49.440;11.126;2023-03-03T06:27:27;-1.43;86.70
71096;DHT22;58753;49.440;11.126;2023-03-03T06:29:53;-1.39;86.58
71096;DHT22;58753;49.440;11.126;2023-03-03T06:32:18;-1.24;86.74
71096;DHT22;58753;49.440;11.126;2023-03-03T06:34:44;-1.11;86.77
71096;DHT22;58753;49.440;11.126;2023-03-03T06:37:09;-1.02;86.54
71096;DHT22;58753;49.440;11.126;2023-03-03T06:39:34;-0.92;86.43
71096;DHT22;58753;49.440;11.126;2023-03-03T06:42:00;-0.85;86.10
71096;DHT22;58753;49.440;11.126;2023-03-03T06:44:25;-0.78;85.94
71096;DHT22;58753;49.440;11.126;2023-03-03T06:46:51;-0.70;85.84
71096;DHT22;58753;49.440;11.126;2023-03-03T06:49:17;-0.61;85.78
71096;DHT22;58753;49.440;11.126;2023-03-03T06:51:42;-0.54;85.71
71096;DHT22;58753;49.440;11.126;2023-03-03T06:54:22;-0.44;85.46
71096;DHT22;58753;49.440;11.126;2023-03-03T06:56:52;-0.37;85.29
71096;DHT22;58753;49.440;11.126;2023-03-03T06:59:20;-0.26;85.17
71096;DHT22;58753;49.440;11.126;2023-03-03T07:01:48;-0.17;84.94
71096;DHT22;58753;49.440;11.126;2023-03-03T07:04:24;-0.10;84.66
71096;DHT22;58753;49.440;11.126;2023-03-03T07:06:54;-0.02;84.46
71096;DHT22;58753;49.440;11.126;2023-03-03T07:09:28;0.08;84.15
71096;DHT22;58753;49.440;11.126;2023-03-03T07:12:20;0.10;83.86
71096;DHT22;58753;49.440;11.126;2023-03-03T07:14:49;0.21;83.78
71096;DHT22;58753;49.440;11.126;2023-03-03T07:17:24;0.26;83.10
71096;DHT22;58753;49.440;11.126;2023-03-03T07:19:49;0.32;82.92
71096;DHT22;58753;49.440;11.126;2023-03-03T07:22:26;0.34;82.74
71096;DHT22;58753;49.440;11.126;2023-03-03T07:24:53;0.35;82.36
71096;DHT22;58753;49.440;11.126;2023-03-03T07:27:29;0.37;82.34
71096;DHT22;58753;49.440;11.126;2023-03-03T07:30:36;0.32;81.89
71096;DHT22;58753;49.440;11.126;2023-03-03T07:33:01;0.37;81.85
71096;DHT22;58753;49.440;11.126;2023-03-03T07:37:58;0.34;81.58
71096;DHT22;58753;49.440;11.126;2023-03-03T07:40:50;0.34;81.24
71096;DHT22;58753;49.440;11.126;2023-03-03T07:46:04;0.29;81.15
71096;DHT22;58753;49.440;11.126;2023-03-03T07:48:35;0.34;81.06
71096;DHT22;58753;49.440;11.126;2023-03-03T07:51:04;0.37;81.01
71096;DHT22;58753;49.440;11.126;2023-03-03T07:53:30;0.42;80.90
71096;DHT22;58753;49.440;11.126;2023-03-03T07:55:59;0.53;80.91
71096;DHT22;58753;49.440;11.126;2023-03-03T07:58:37;0.56;80.66
71096;DHT22;58753;49.440;11.126;2023-03-03T08:03:54;0.72;80.55
71096;DHT22;58753;49.440;11.126;2023-03-03T08:11:40;0.93;80.14
71096;DHT22;58753;49.440;11.126;2023-03-03T08:14:14;0.97;79.86
71096;DHT22;58753;49.440;11.126;2023-03-03T08:16:40;1.08;79.83
71096;DHT22;58753;49.440;11.126;2023-03-03T08:19:05;1.13;79.64
71096;DHT22;58753;49.440;11.126;2023-03-03T08:21:32;1.17;79.13
71096;DHT22;58753;49.440;11.126;2023-03-03T08:23:59;1.20;79.01
71096;DHT22;58753;49.440;11.126;2023-03-03T08:26:25;1.24;78.83
71096;DHT22;58753;49.440;11.126;2023-03-03T08:28:51;1.33;78.24
71096;DHT22;58753;49.440;11.126;2023-03-03T08:31:17;1.46;77.92
71096;DHT22;58753;49.440;11.126;2023-03-03T08:33:43;1.52;77.77
71096;DHT22;58753;49.440;11.126;2023-03-03T08:36:09;1.61;77.52
71096;DHT22;58753;49.440;11.126;2023-03-03T08:38:35;1.68;77.16
71096;DHT22;58753;49.440;11.126;2023-03-03T08:41:02;1.72;77.03
71096;DHT22;58753;49.440;11.126;2023-03-03T08:43:28;1.77;76.93
71096;DHT22;58753;49.440;11.126;2023-03-03T08:45:57;1.82;76.75
71096;DHT22;58753;49.440;11.126;2023-03-03T08:48:24;1.85;76.66
71096;DHT22;58753;49.440;11.126;2023-03-03T08:50:49;1.86;76.45
71096;DHT22;58753;49.440;11.126;2023-03-03T08:53:16;1.88;76.40
71096;DHT22;58753;49.440;11.126;2023-03-03T08:55:42;1.98;76.48
71096;DHT22;58753;49.440;11.126;2023-03-03T08:58:08;2.02;76.25
71096;DHT22;58753;49.440;11.126;2023-03-03T09:00:33;2.12;76.27
71096;DHT22;58753;49.440;11.126;2023-03-03T09:02:59;2.25;75.95
71096;DHT22;58753;49.440;11.126;2023-03-03T09:05:25;2.33;75.49
71096;DHT22;58753;49.440;11.126;2023-03-03T09:07:51;2.39;75.26
71096;DHT22;58753;49.440;11.126;2023-03-03T09:10:19;2.34;75.00
71096;DHT22;58753;49.440;11.126;2023-03-03T09:12:50;2.46;74.85
71096;DHT22;58753;49.440;11.126;2023-03-03T09:15:26;2.61;74.20
71096;DHT22;58753;49.440;11.126;2023-03-03T09:17:53;2.77;73.97
71096;DHT22;58753;49.440;11.126;2023-03-03T09:25:46;3.24;72.91
71096;DHT22;58753;49.440;11.126;2023-03-03T09:30:50;3.36;72.02
71096;DHT22;58753;49.440;11.126;2023-03-03T09:35:45;3.52;71.53
71096;DHT22;58753;49.440;11.126;2023-03-03T09:38:31;3.60;71.18
71096;DHT22;58753;49.440;11.126;2023-03-03T09:41:05;3.70;70.87
71096;DHT22;58753;49.440;11.126;2023-03-03T09:46:23;3.93;69.97
71096;DHT22;58753;49.440;11.126;2023-03-03T09:55:02;4.30;68.52
71096;DHT22;58753;49.440;11.126;2023-03-03T09:57:50;4.40;68.09
71096;DHT22;58753;49.440;11.126;2023-03-03T10:06:03;4.84;66.85
71096;DHT22;58753;49.440;11.126;2023-03-03T10:09:07;5.02;66.38
71096;DHT22;58753;49.440;11.126;2023-03-03T10:11:50;5.18;65.82
71096;DHT22;58753;49.440;11.126;2023-03-03T10:17:27;5.32;64.73
71096;DHT22;58753;49.440;11.126;2023-03-03T10:20:11;5.46;63.59
71096;DHT22;58753;49.440;11.126;2023-03-03T10:22:50;5.60;63.29
71096;DHT22;58753;49.440;11.126;2023-03-03T10:25:41;5.69;62.47
71096;DHT22;58753;49.440;11.126;2023-03-03T10:36:35;6.32;60.41
71096;DHT22;58753;49.440;11.126;2023-03-03T10:39:42;6.38;59.04
71096;DHT22;58753;49.440;11.126;2023-03-03T10:42:35;6.57;58.40
71096;DHT22;58753;49.440;11.126;2023-03-03T10:48:29;6.77;57.61
71096;DHT22;58753;49.440;11.126;2023-03-03T10:56:56;7.17;55.79
71096;DHT22;58753;49.440;11.126;2023-03-03T10:59:52;7.28;55.52
71096;DHT22;58753;49.440;11.126;2023-03-03T11:02:25;7.43;55.25
71096;DHT22;58753;49.440;11.126;2023-03-03T11:05:02;7.65;54.70
71096;DHT22;58753;49.440;11.126;2023-03-03T11:07:47;7.78;54.22
71096;DHT22;58753;49.440;11.126;2023-03-03T11:15:49;8.26;52.73
71096;DHT22;58753;49.440;11.126;2023-03-03T11:20:58;8.56;51.89
71096;DHT22;58753;49.440;11.126;2023-03-03T11:32:13;12.69;48.41
71096;DHT22;58753;49.440;11.126;2023-03-03T11:38:14;14.24;43.99
71096;DHT22;58753;49.440;11.126;2023-03-03T11:40:21;14.46;40.65
71096;DHT22;58753;49.440;11.126;2023-03-03T11:43:02;14.75;40.14
71096;DHT22;58753;49.440;11.126;2023-03-03T11:45:43;15.08;38.89
71096;DHT22;58753;49.440;11.126;2023-03-03T11:48:17;15.26;37.32
71096;DHT22;58753;49.440;11.126;2023-03-03T11:50:56;15.33;37.95
71096;DHT22;58753;49.440;11.126;2023-03-03T11:53:43;15.13;36.70
71096;DHT22;58753;49.440;11.126;2023-03-03T11:56:47;15.16;36.65
71096;DHT22;58753;49.440;11.126;2023-03-03T11:59:34;15.34;36.43
71096;DHT22;58753;49.440;11.126;2023-03-03T12:05:03;15.48;34.37
71096;DHT22;58753;49.440;11.126;2023-03-03T12:07:48;16.02;34.79
71096;DHT22;58753;49.440;11.126;2023-03-03T12:18:20;17.64;31.61
71096;DHT22;58753;49.440;11.126;2023-03-03T12:24:07;17.14;30.04
71096;DHT22;58753;49.440;11.126;2023-03-03T12:26:58;17.46;29.67
71096;DHT22;58753;49.440;11.126;2023-03-03T12:29:40;17.87;28.72
71096;DHT22;58753;49.440;11.126;2023-03-03T12:35:01;17.96;27.48
71096;DHT22;58753;49.440;11.126;2023-03-03T12:38:04;18.12;28.55
71096;DHT22;58753;49.440;11.126;2023-03-03T12:40:42;18.09;27.91
71096;DHT22;58753;49.440;11.126;2023-03-03T12:43:30;18.25;27.79
71096;DHT22;58753;49.440;11.126;2023-03-03T12:48:46;18.09;29.17
71096;DHT22;58753;49.440;11.126;2023-03-03T12:59:07;17.07;29.16
71096;DHT22;58753;49.440;11.126;2023-03-03T13:07:19;16.64;30.36
71096;DHT22;58753;49.440;11.126;2023-03-03T13:10:11;16.59;30.34
71096;DHT22;58753;49.440;11.126;2023-03-03T13:12:44;16.53;29.99
71096;DHT22;58753;49.440;11.126;2023-03-03T13:15:27;16.09;30.50
71096;DHT22;58753;49.440;11.126;2023-03-03T13:18:28;16.15;30.85
71096;DHT22;58753;49.440;11.126;2023-03-03T13:21:13;16.39;30.93
71096;DHT22;58753;49.440;11.126;2023-03-03T13:27:12;15.51;30.80
71096;DHT22;58753;49.440;11.126;2023-03-03T13:29:36;14.97;30.68
71096;DHT22;58753;49.440;11.126;2023-03-03T13:32:21;14.94;31.55
71096;DHT22;58753;49.440;11.126;2023-03-03T13:34:57;14.65;31.47
71096;DHT22;58753;49.440;11.126;2023-03-03T13:37:38;14.12;32.11
71096;DHT22;58753;49.440;11.126;2023-03-03T13:42:46;13.35;32.51
71096;DHT22;58753;49.440;11.126;2023-03-03T13:50:56;14.21;33.82
71096;DHT22;58753;49.440;11.126;2023-03-03T13:53:31;14.18;33.49
71096;DHT22;58753;49.440;11.126;2023-03-03T14:05:00;13.23;34.04
71096;DHT22;58753;49.440;11.126;2023-03-03T14:07:39;13.09;34.45
71096;DHT22;58753;49.440;11.126;2023-03-03T14:10:38;12.96;34.71
71096;DHT22;58753;49.440;11.126;2023-03-03T14:18:23;14.35;34.62
71096;DHT22;58753;49.440;11.126;2023-03-03T14:20:52;14.73;33.88
71096;DHT22;58753;49.440;11.126;2023-03-03T14:26:14;15.07;33.67
71096;DHT22;58753;49.440;11.126;2023-03-03T14:28:45;14.86;32.45
71096;DHT22;58753;49.440;11.126;2023-03-03T14:31:43;14.87;32.35
71096;DHT22;58753;49.440;11.126;2023-03-03T14:34:35;15.20;30.94
71096;DHT22;58753;49.440;11.126;2023-03-03T14:37:22;15.47;31.00
71096;DHT22;58753;49.440;11.126;2023-03-03T14:40:20;16.05;31.16
71096;DHT22;58753;49.440;11.126;2023-03-03T14:42:53;16.46;30.33
71096;DHT22;58753;49.440;11.126;2023-03-03T14:45:39;16.59;29.51
71096;DHT22;58753;49.440;11.126;2023-03-03T14:48:25;16.55;29.01
71096;DHT22;58753;49.440;11.126;2023-03-03T14:50:59;16.46;28.86
71096;DHT22;58753;49.440;11.126;2023-03-03T14:53:43;16.20;29.31
71096;DHT22;58753;49.440;11.126;2023-03-03T14:58:40;15.08;29.31
71096;DHT22;58753;49.440;11.126;2023-03-03T15:01:30;14.61;30.05
71096;DHT22;58753;49.440;11.126;2023-03-03T15:04:03;14.32;30.99
71096;DHT22;58753;49.440;11.126;2023-03-03T15:06:37;14.17;31.27
71096;DHT22;58753;49.440;11.126;2023-03-03T15:09:23;14.05;31.64
71096;DHT22;58753;49.440;11.126;2023-03-03T15:11:54;13.97;32.17
71096;DHT22;58753;49.440;11.126;2023-03-03T15:14:26;14.19;32.51
71096;DHT22;58753;49.440;11.126;2023-03-03T15:16:56;14.02;31.89
71096;DHT22;58753;49.440;11.126;2023-03-03T15:22:13;12.78;33.37
71096;DHT22;58753;49.440;11.126;2023-03-03T15:24:56;12.48;34.16
71096;DHT22;58753;49.440;11.126;2023-03-03T15:27:31;11.84;34.72
71096;DHT22;58753;49.440;11.126;2023-03-03T15:30:10;11.44;35.58
71096;DHT22;58753;49.440;11.126;2023-03-03T15:32:58;11.12;36.71
71096;DHT22;58753;49.440;11.126;2023-03-03T15:35:53;10.96;37.55
71096;DHT22;58753;49.440;11.126;2023-03-03T15:41:17;10.63;38.52
71096;DHT22;58753;49.440;11.126;2023-03-03T15:44:23;10.47;39.32
71096;DHT22;58753;49.440;11.126;2023-03-03T15:58:40;9.80;42.03
71096;DHT22;58753;49.440;11.126;2023-03-03T16:03:37;9.62;42.45
71096;DHT22;58753;49.440;11.126;2023-03-03T16:06:10;9.53;42.81
71096;DHT22;58753;49.440;11.126;2023-03-03T16:11:44;9.52;43.31
71096;DHT22;58753;49.440;11.126;2023-03-03T16:20:22;9.19;44.25
71096;DHT22;58753;49.440;11.126;2023-03-03T16:24:01;9.05;44.51
71096;DHT22;58753;49.440;11.126;2023-03-03T16:31:48;8.81;45.90
71096;DHT22;58753;49.440;11.126;2023-03-03T16:34:44;8.83;46.30
71096;DHT22;58753;49.440;11.126;2023-03-03T16:39:45;8.61;47.13
71096;DHT22;58753;49.440;11.126;2023-03-03T16:42:24;8.53;47.54
71096;DHT22;58753;49.440;11.126;2023-03-03T17:07:03;7.44;50.96
71096;DHT22;58753;49.440;11.126;2023-03-03T17:25:21;6.96;52.53
71096;DHT22;58753;49.440;11.126;2023-03-03T17:31:39;6.72;52.71
71096;DHT22;58753;49.440;11.126;2023-03-03T17:44:34;6.34;53.25
71096;DHT22;58753;49.440;11.126;2023-03-03T17:47:04;6.29;53.43
71096;DHT22;58753;49.440;11.126;2023-03-03T17:50:00;6.20;53.50
71096;DHT22;58753;49.440;11.126;2023-03-03T17:55:38;6.05;53.52
71096;DHT22;58753;49.440;11.126;2023-03-03T18:09:43;5.75;54.34
71096;DHT22;58753;49.440;11.126;2023-03-03T18:12:33;5.69;54.46
71096;DHT22;58753;49.440;11.126;2023-03-03T18:20:42;5.42;54.76
71096;DHT22;58753;49.440;11.126;2023-03-03T18:23:41;5.28;55.04
71096;DHT22;58753;49.440;11.126;2023-03-03T18:26:42;5.15;55.37
71096;DHT22;58753;49.440;11.126;2023-03-03T18:32:03;4.86;56.06
71096;DHT22;58753;49.440;11.126;2023-03-03T18:34:35;4.78;56.43
71096;DHT22;58753;49.440;11.126;2023-03-03T18:42:38;4.51;57.45
71096;DHT22;58753;49.440;11.126;2023-03-03T18:50:45;4.27;58.42
71096;DHT22;58753;49.440;11.126;2023-03-03T18:55:54;4.13;58.98
71096;DHT22;58753;49.440;11.126;2023-03-03T18:58:41;4.03;59.23
71096;DHT22;58753;49.440;11.126;2023-03-03T19:09:53;3.60;60.77
71096;DHT22;58753;49.440;11.126;2023-03-03T19:12:45;3.54;61.32
71096;DHT22;58753;49.440;11.126;2023-03-03T19:20:41;3.35;62.04
71096;DHT22;58753;49.440;11.126;2023-03-03T19:23:23;3.27;62.36
71096;DHT22;58753;49.440;11.126;2023-03-03T19:32:05;2.97;63.58
71096;DHT22;58753;49.440;11.126;2023-03-03T19:40:20;2.70;64.60
71096;DHT22;58753;49.440;11.126;2023-03-03T19:43:23;2.61;64.96
71096;DHT22;58753;49.440;11.126;2023-03-03T19:46:07;2.49;65.17
71096;DHT22;58753;49.440;11.126;2023-03-03T19:56:23;2.15;66.51
71096;DHT22;58753;49.440;11.126;2023-03-03T19:59:18;2.05;66.82
71096;DHT22;58753;49.440;11.126;2023-03-03T20:12:32;1.62;68.16
71096;DHT22;58753;49.440;11.126;2023-03-03T20:15:38;1.58;68.56
71096;DHT22;58753;49.440;11.126;2023-03-03T20:37:45;1.06;70.68
71096;DHT22;58753;49.440;11.126;2023-03-03T20:40:35;0.97;70.98
71096;DHT22;58753;49.440;11.126;2023-03-03T20:54:10;0.72;72.25
71096;DHT22;58753;49.440;11.126;2023-03-03T20:59:54;0.56;72.70
71096;DHT22;58753;49.440;11.126;2023-03-03T21:02:30;0.51;72.90
71096;DHT22;58753;49.440;11.126;2023-03-03T21:05:15;0.44;73.28
71096;DHT22;58753;49.440;11.126;2023-03-03T21:10:23;0.35;73.67
71096;DHT22;58753;49.440;11.126;2023-03-03T21:12:51;0.31;73.94
71096;DHT22;58753;49.440;11.126;2023-03-03T21:15:32;0.28;74.06
71096;DHT22;58753;49.440;11.126;2023-03-03T21:18:19;0.18;74.08
71096;DHT22;58753;49.440;11.126;2023-03-03T21:20:44;0.17;74.38
71096;DHT22;58753;49.440;11.126;2023-03-03T21:23:10;0.11;74.53
71096;DHT22;58753;49.440;11.126;2023-03-03T21:28:24;0.05;74.87
71096;DHT22;58753;49.440;11.126;2023-03-03T21:33:56;-0.06;75.23
71096;DHT22;58753;49.440;11.126;2023-03-03T21:38:56;-0.14;75.50
71096;DHT22;58753;49.440;11.126;2023-03-03T21:41:22;-0.19;75.57
71096;DHT22;58753;49.440;11.126;2023-03-03T21:43:50;-0.21;75.84
71096;DHT22;58753;49.440;11.126;2023-03-03T21:46:19;-0.24;76.03
71096;DHT22;58753;49.440;11.126;2023-03-03T21:48:44;-0.29;76.07
71096;DHT22;58753;49.440;11.126;2023-03-03T21:51:10;-0.31;76.24
71096;DHT22;58753;49.440;11.126;2023-03-03T21:53:39;-0.34;76.45
71096;DHT22;58753;49.440;11.126;2023-03-03T21:56:05;-0.36;76.53
71096;DHT22;58753;49.440;11.126;2023-03-03T21:58:30;-0.43;76.56